Time;durP1;ratioP1;P1;durP2;ratioP2;P2;SDS_P1;SDS_P2;PMS_P1;PMS_P2;Temp;Humidity;BMP_temperature;BMP_pressure;BME280_temperature;BME280_humidity;BME280_pressure;Samples;Min_cycle;Max_cycle;Signal;HPM_P1;HPM_P2
2024/01/31 00:00:52;;;;;;;15.73;11.88;;;;;;;8.40;70.57;102063.22;3157517;22;20038;-79
2024/01/31 00:02:06;;;;;;;16.73;12.23;;;;;;;8.42;70.36;102058.94;3158226;22;20023;-79
2024/01/31 00:03:20;;;;;;;14.13;11.70;;;;;;;8.43;70.38;102058.09;3158491;22;20091;-78
2024/01/31 00:04:36;;;;;;;14.45;10.70;;;;;;;8.45;70.10;102067.69;3157310;22;20046;-79
2024/01/31 00:05:51;;;;;;;12.80;11.43;;;;;;;8.45;70.24;102067.69;3158573;22;20102;-78
2024/01/31 00:07:04;;;;;;;15.57;10.23;;;;;;;8.46;70.12;102060.75;3158420;22;20027;-78
2024/01/31 00:08:19;;;;;;;12.75;11.13;;;;;;;8.48;70.21;102069.47;3157401;22;20020;-81
2024/01/31 00:09:32;;;;;;;13.70;10.98;;;;;;;8.47;70.37;102062.53;3158366;22;20031;-79
2024/01/31 00:10:47;;;;;;;14.20;10.95;;;;;;;8.47;70.14;102067.72;3158250;22;20447;-78
2024/01/31 00:12:01;;;;;;;14.50;11.75;;;;;;;8.47;69.89;102060.78;3158609;22;21483;-80
2024/01/31 00:13:16;;;;;;;14.50;12.85;;;;;;;8.47;69.86;102065.13;3159344;22;20043;-79
2024/01/31 00:14:29;;;;;;;16.10;10.68;;;;;;;8.46;70.00;102065.94;3158601;22;20032;-78
2024/01/31 00:15:45;;;;;;;12.32;10.02;;;;;;;8.46;70.08;102059.03;3157991;22;20027;-78
2024/01/31 00:16:58;;;;;;;12.88;10.50;;;;;;;8.46;70.00;102056.41;3158785;22;20080;-78
2024/01/31 00:18:13;;;;;;;12.95;11.60;;;;;;;8.46;69.72;102055.53;3158341;22;20069;-79
2024/01/31 00:19:26;;;;;;;16.25;11.52;;;;;;;8.46;69.75;102055.53;3158080;22;20019;-79
2024/01/31 00:20:41;;;;;;;14.88;12.02;;;;;;;8.48;69.61;102066.88;3156529;22;20024;-78
2024/01/31 00:21:54;;;;;;;13.98;10.90;;;;;;;8.48;69.54;102065.13;3158760;22;20042;-79
2024/01/31 00:23:08;;;;;;;13.13;11.23;;;;;;;8.49;69.74;102060.81;3158431;22;20038;-78
2024/01/31 00:24:22;;;;;;;14.35;10.80;;;;;;;8.50;69.55;102062.59;3156892;22;20015;-79
2024/01/31 00:25:36;;;;;;;15.27;12.00;;;;;;;8.51;69.29;102064.34;3157674;22;20649;-79
2024/01/31 00:26:50;;;;;;;14.10;10.45;;;;;;;8.52;69.33;102066.09;3157560;22;20024;-79
2024/01/31 00:28:06;;;;;;;12.95;11.55;;;;;;;8.53;68.96;102073.06;3157831;22;20038;-79
2024/01/31 00:29:19;;;;;;;14.20;10.73;;;;;;;8.55;69.06;102066.16;3157758;22;20024;-79
2024/01/31 00:30:34;;;;;;;16.42;11.82;;;;;;;8.57;69.01;102077.50;3158179;22;20019;-79
2024/01/31 00:31:47;;;;;;;11.68;10.35;;;;;;;8.57;69.05;102077.50;3156952;22;20379;-78
2024/01/31 00:33:01;;;;;;;15.15;10.65;;;;;;;8.58;68.80;102071.44;3158473;22;20102;-79
2024/01/31 00:34:15;;;;;;;14.48;10.55;;;;;;;8.59;68.79;102074.91;3158448;22;20027;-78
2024/01/31 00:35:29;;;;;;;13.20;9.48;;;;;;;8.60;69.15;102071.50;3159048;22;20028;-79
2024/01/31 00:36:43;;;;;;;11.20;10.10;;;;;;;8.62;68.92;102060.25;3159263;22;20367;-78
2024/01/31 00:37:57;;;;;;;17.15;10.75;;;;;;;8.64;68.86;102070.69;3161687;22;20045;-78
2024/01/31 00:39:11;;;;;;;13.18;10.07;;;;;;;8.64;68.77;102070.69;3158650;22;20031;-78
2024/01/31 00:40:25;;;;;;;14.48;10.30;;;;;;;8.64;68.80;102062.88;3157594;22;20470;-79
2024/01/31 00:41:38;;;;;;;10.32;9.07;;;;;;;8.64;68.73;102068.09;3158766;22;20020;-79
2024/01/31 00:42:53;;;;;;;12.15;10.20;;;;;;;8.64;68.71;102060.28;3158742;22;20095;-77
2024/01/31 00:44:08;;;;;;;14.90;11.05;;;;;;;8.65;68.74;102064.66;3157819;22;20407;-78
2024/01/31 00:45:24;;;;;;;12.10;9.80;;;;;;;8.67;68.50;102060.34;3158346;22;20054;-79
2024/01/31 00:46:40;;;;;;;14.02;10.45;;;;;;;8.69;68.36;102066.47;3158439;22;20024;-78
2024/01/31 00:47:55;;;;;;;19.35;11.27;;;;;;;8.70;68.27;102063.91;3157435;22;20035;-78
2024/01/31 00:49:08;;;;;;;15.25;10.32;;;;;;;8.71;68.28;102065.66;3158251;22;20020;-79
2024/01/31 00:50:23;;;;;;;14.95;10.70;;;;;;;8.72;68.27;102071.72;3158605;22;20745;-78
2024/01/31 00:51:36;;;;;;;12.90;9.85;;;;;;;8.72;68.19;102072.63;3158796;22;20351;-78
2024/01/31 00:52:50;;;;;;;11.45;10.07;;;;;;;8.73;68.34;102068.31;3159540;22;20024;-79
2024/01/31 00:54:04;;;;;;;15.88;10.85;;;;;;;8.73;68.31;102073.50;3160615;22;20028;-78
2024/01/31 00:55:18;;;;;;;14.30;10.80;;;;;;;8.73;68.09;102066.56;3159787;22;20346;-78
2024/01/31 00:56:32;;;;;;;10.68;9.32;;;;;;;8.74;68.06;102070.03;3159155;22;20024;-78
2024/01/31 00:57:47;;;;;;;12.52;9.77;;;;;;;8.76;68.09;102070.09;3159825;22;20020;-77
2024/01/31 00:59:00;;;;;;;11.32;9.77;;;;;;;8.76;67.77;102070.09;3159764;22;20498;-78
2024/01/31 01:00:17;;;;;;;14.98;10.75;;;;;;;8.78;67.66;102074.50;3159115;22;20020;-78
2024/01/31 01:01:31;;;;;;;11.32;10.05;;;;;;;8.78;67.50;102069.28;3159793;22;20425;-79
2024/01/31 01:02:45;;;;;;;11.95;10.25;;;;;;;8.78;67.47;102069.28;3159770;22;20024;-78
2024/01/31 01:03:59;;;;;;;13.13;9.68;;;;;;;8.78;67.50;102068.38;3160283;22;20039;-78
2024/01/31 01:05:13;;;;;;;14.70;10.63;;;;;;;8.78;67.57;102064.06;3160373;22;20108;-79
2024/01/31 01:06:27;;;;;;;13.05;11.20;;;;;;;8.79;67.39;102068.41;3158852;22;20046;-80
2024/01/31 01:07:41;;;;;;;10.38;9.25;;;;;;;8.80;67.18;102071.91;3158566;22;20034;-78
2024/01/31 01:08:55;;;;;;;12.10;10.32;;;;;;;8.80;67.28;102066.69;3158930;22;20024;-78
2024/01/31 01:10:10;;;;;;;19.13;11.32;;;;;;;8.81;67.14;102068.47;3159933;22;20043;-79
2024/01/31 01:11:25;;;;;;;14.88;10.30;;;;;;;8.81;66.96;102076.28;3159810;22;20031;-79
2024/01/31 01:12:39;;;;;;;13.00;9.43;;;;;;;8.81;67.21;102073.69;3159520;22;20015;-78
2024/01/31 01:13:53;;;;;;;14.88;10.30;;;;;;;8.81;67.08;102076.28;3159259;22;20028;-79
2024/01/31 01:15:08;;;;;;;12.50;11.05;;;;;;;8.80;67.26;102069.28;3159720;22;20019;-77
2024/01/31 01:16:23;;;;;;;13.90;10.80;;;;;;;8.78;67.18;102069.28;3158515;22;20509;-77
2024/01/31 01:17:38;;;;;;;13.75;12.25;;;;;;;8.80;66.98;102071.91;3159727;22;20024;-78
2024/01/31 01:18:51;;;;;;;16.05;11.35;;;;;;;8.80;67.00;102070.16;3159372;22;20019;-79
2024/01/31 01:20:08;;;;;;;14.93;10.35;;;;;;;8.80;66.78;102071.91;3159526;22;20020;-79
2024/01/31 01:21:22;;;;;;;16.67;11.20;;;;;;;8.81;66.80;102068.47;3159972;22;20028;-79
2024/01/31 01:22:36;;;;;;;11.38;9.25;;;;;;;8.81;66.69;102069.34;3159694;22;20402;-79
2024/01/31 01:23:49;;;;;;;13.07;9.73;;;;;;;8.82;66.77;102072.81;3159125;22;20019;-79
2024/01/31 01:25:04;;;;;;;11.90;9.88;;;;;;;8.81;66.78;102063.25;3159454;22;20026;-77
2024/01/31 01:26:18;;;;;;;18.20;11.88;;;;;;;8.80;66.79;102062.34;3162408;22;20098;-78
2024/01/31 01:27:32;;;;;;;23.42;10.77;;;;;;;8.80;66.90;102061.47;3169647;22;20031;-80
2024/01/31 01:28:46;;;;;;;11.82;9.68;;;;;;;8.79;66.73;102068.41;3163369;22;20078;-78
2024/01/31 01:30:00;;;;;;;15.90;12.25;;;;;;;8.80;66.63;102064.09;3159534;22;20102;-78
2024/01/31 01:31:14;;;;;;;15.57;11.55;;;;;;;8.79;66.89;102060.63;3159089;22;20023;-78
2024/01/31 01:32:29;;;;;;;17.77;13.63;;;;;;;8.79;66.95;102062.34;3158364;22;20362;-78
2024/01/31 01:33:43;;;;;;;11.77;9.38;;;;;;;8.78;66.91;102057.97;3158836;22;20023;-78
2024/01/31 01:34:57;;;;;;;11.10;9.63;;;;;;;8.79;66.70;102070.16;3158970;22;20481;-79
2024/01/31 01:36:11;;;;;;;15.35;10.52;;;;;;;8.79;66.76;102068.41;3158522;22;20019;-78
2024/01/31 01:37:25;;;;;;;13.50;9.65;;;;;;;8.79;66.76;102063.22;3159153;22;20030;-79
2024/01/31 01:38:39;;;;;;;13.27;10.60;;;;;;;8.80;66.67;102064.97;3158982;22;20379;-78
2024/01/31 01:39:53;;;;;;;13.05;10.10;;;;;;;8.82;66.64;102067.59;3158588;22;20024;-78
2024/01/31 01:41:06;;;;;;;13.07;11.18;;;;;;;8.81;66.87;102068.47;3159138;22;20031;-78
2024/01/31 01:42:21;;;;;;;12.20;10.98;;;;;;;8.80;66.86;102059.75;3159355;22;20026;-79
2024/01/31 01:43:36;;;;;;;16.38;9.80;;;;;;;8.81;66.57;102056.31;3159615;22;20028;-79
2024/01/31 01:44:49;;;;;;;11.75;10.25;;;;;;;8.81;66.78;102058.06;3158231;22;20023;-79
2024/01/31 01:46:10;;;;;;;15.00;9.82;;;;;;;8.81;66.59;102055.44;3158867;22;20019;-79
2024/01/31 01:47:24;;;;;;;11.25;9.30;;;;;;;8.80;66.78;102057.16;3159125;22;20065;-79
2024/01/31 01:48:40;;;;;;;10.90;9.77;;;;;;;8.80;66.74;102059.75;3157690;22;20458;-78
2024/01/31 01:49:54;;;;;;;13.00;10.00;;;;;;;8.79;67.01;102062.34;3159107;22;20370;-78
2024/01/31 01:51:08;;;;;;;12.77;10.68;;;;;;;8.79;67.07;102057.13;3159297;22;20091;-78
2024/01/31 01:52:22;;;;;;;10.65;9.65;;;;;;;8.78;67.07;102057.97;3158354;22;20451;-79
2024/01/31 01:53:37;;;;;;;13.88;9.60;;;;;;;8.77;67.04;102059.69;3159092;22;20058;-78
2024/01/31 01:54:50;;;;;;;11.70;9.68;;;;;;;8.76;67.20;102060.56;3159024;22;20504;-78
2024/01/31 01:56:06;;;;;;;12.00;9.25;;;;;;;8.74;67.13;102055.31;3158461;22;20040;-79
2024/01/31 01:57:19;;;;;;;14.30;10.80;;;;;;;8.73;67.39;102052.69;3159020;22;20459;-80
2024/01/31 01:58:34;;;;;;;12.43;9.93;;;;;;;8.73;67.19;102050.09;3158751;22;20034;-79
2024/01/31 01:59:48;;;;;;;12.85;10.18;;;;;;;8.72;67.30;102053.50;3158165;22;20020;-79
2024/01/31 02:01:03;;;;;;;18.67;11.38;;;;;;;8.71;67.18;102057.84;3159225;22;20026;-79
2024/01/31 02:02:17;;;;;;;16.65;11.73;;;;;;;8.72;67.13;102061.31;3159120;22;20023;-79
2024/01/31 02:03:31;;;;;;;14.23;10.38;;;;;;;8.71;67.46;102062.19;3158729;22;20024;-78
2024/01/31 02:04:47;;;;;;;13.30;10.00;;;;;;;8.70;67.26;102063.91;3157525;22;20030;-79
2024/01/31 02:06:01;;;;;;;14.30;11.73;;;;;;;8.69;67.51;102056.06;3158934;22;20020;-78
2024/01/31 02:07:20;;;;;;;16.83;11.23;;;;;;;8.67;67.68;102048.22;3158787;22;20023;-78
2024/01/31 02:08:35;;;;;;;11.95;10.13;;;;;;;8.66;67.88;102054.25;3158135;22;20077;-79
2024/01/31 02:09:49;;;;;;;12.98;11.48;;;;;;;8.65;68.03;102051.66;3158441;22;20028;-78
2024/01/31 02:11:03;;;;;;;16.48;11.45;;;;;;;8.63;67.98;102049.00;3158583;22;20394;-78
2024/01/31 02:12:17;;;;;;;16.77;12.32;;;;;;;8.63;67.92;102046.41;3160130;22;20019;-78
2024/01/31 02:13:31;;;;;;;11.80;10.32;;;;;;;8.63;68.18;102048.13;3158162;22;20358;-78
2024/01/31 02:14:47;;;;;;;16.52;12.80;;;;;;;8.63;68.16;102048.13;3158236;22;20027;-79
2024/01/31 02:16:01;;;;;;;12.65;10.48;;;;;;;8.61;68.26;102045.47;3158256;22;20100;-78
2024/01/31 02:17:15;;;;;;;12.82;10.48;;;;;;;8.60;68.38;102051.53;3158333;22;20087;-78
2024/01/31 02:18:29;;;;;;;12.57;10.50;;;;;;;8.58;68.47;102048.03;3158124;22;20019;-78
2024/01/31 02:19:43;;;;;;;12.30;10.13;;;;;;;8.57;68.26;102043.66;3157510;22;20028;-78
2024/01/31 02:20:59;;;;;;;12.90;11.32;;;;;;;8.57;68.54;102048.88;3158206;22;20019;-78
2024/01/31 02:22:16;;;;;;;13.85;10.18;;;;;;;8.57;68.53;102046.28;3158333;22;20023;-78
2024/01/31 02:23:31;;;;;;;11.52;10.32;;;;;;;8.57;68.66;102043.66;3157561;22;20027;-77
2024/01/31 02:24:44;;;;;;;11.70;10.50;;;;;;;8.56;68.37;102035.81;3157688;22;20024;-79
2024/01/31 02:25:59;;;;;;;13.18;10.27;;;;;;;8.56;68.24;102041.91;3158180;22;20030;-78
2024/01/31 02:27:12;;;;;;;17.52;11.57;;;;;;;8.56;68.34;102041.91;3158169;22;20042;-79
2024/01/31 02:28:27;;;;;;;18.98;12.02;;;;;;;8.56;68.38;102039.28;3157382;22;20074;-78
2024/01/31 02:29:40;;;;;;;12.10;10.68;;;;;;;8.55;68.41;102040.16;3158246;22;20027;-78
2024/01/31 02:30:55;;;;;;;12.40;10.73;;;;;;;8.56;68.41;102041.03;3158226;22;20023;-78
2024/01/31 02:32:08;;;;;;;12.93;10.70;;;;;;;8.56;68.21;102038.41;3157825;22;20016;-78
2024/01/31 02:33:23;;;;;;;15.80;10.50;;;;;;;8.55;68.36;102037.56;3163699;22;20019;-79
2024/01/31 02:34:36;;;;;;;11.38;10.27;;;;;;;8.55;68.13;102034.06;3157968;22;20027;-78
2024/01/31 02:35:50;;;;;;;11.60;8.68;;;;;;;8.54;68.27;102030.56;3157496;22;20506;-79
2024/01/31 02:37:04;;;;;;;10.65;9.57;;;;;;;8.54;68.31;102033.16;3158357;22;20024;-79
2024/01/31 02:38:20;;;;;;;15.07;11.02;;;;;;;8.55;68.18;102039.28;3158215;22;20507;-78
2024/01/31 02:39:33;;;;;;;19.45;10.20;;;;;;;8.53;68.13;102031.44;3158127;22;20359;-79
2024/01/31 02:40:48;;;;;;;13.82;10.10;;;;;;;8.52;67.97;102033.16;3157652;22;20025;-79
2024/01/31 02:42:01;;;;;;;17.52;11.65;;;;;;;8.52;68.16;102035.75;3158352;22;20332;-79
2024/01/31 02:43:16;;;;;;;16.98;11.23;;;;;;;8.51;68.09;102030.50;3157585;22;20026;-78
2024/01/31 02:44:29;;;;;;;16.23;11.15;;;;;;;8.52;67.93;102030.56;3157374;22;20019;-78
2024/01/31 02:45:44;;;;;;;10.50;9.32;;;;;;;8.52;67.80;102024.47;3158321;22;20015;-79
2024/01/31 02:46:57;;;;;;;15.70;10.27;;;;;;;8.53;67.89;102028.81;3158442;22;20386;-79
2024/01/31 02:48:11;;;;;;;15.07;9.07;;;;;;;8.53;67.80;102028.81;3157869;22;20102;-79
2024/01/31 02:49:25;;;;;;;14.05;10.30;;;;;;;8.54;67.64;102032.28;3158333;22;20024;-79
2024/01/31 02:50:39;;;;;;;13.70;10.13;;;;;;;8.54;67.70;102033.16;3159173;22;20016;-77
2024/01/31 02:51:53;;;;;;;16.48;11.65;;;;;;;8.55;67.57;102037.56;3159043;22;20378;-77
2024/01/31 02:53:07;;;;;;;11.80;9.90;;;;;;;8.55;67.66;102032.34;3159320;22;20020;-78
2024/01/31 02:54:22;;;;;;;18.13;11.10;;;;;;;8.58;67.52;102031.53;3158628;22;20393;-79
2024/01/31 02:55:36;;;;;;;12.77;10.48;;;;;;;8.57;67.55;102035.88;3158317;22;20134;-79
2024/01/31 02:56:50;;;;;;;17.88;11.15;;;;;;;8.59;67.38;102041.09;3158141;22;20451;-78
2024/01/31 02:58:05;;;;;;;12.18;10.70;;;;;;;8.59;67.15;102035.88;3158778;22;20051;-79
2024/01/31 02:59:20;;;;;;;13.73;12.30;;;;;;;8.59;67.40;102034.16;3158169;22;20069;-78
2024/01/31 03:00:35;;;;;;;13.02;9.05;;;;;;;8.60;67.25;102037.66;3157647;22;20026;-79
2024/01/31 03:01:49;;;;;;;11.65;10.02;;;;;;;8.60;67.07;102037.66;3158728;22;20489;-78
2024/01/31 03:03:04;;;;;;;12.98;9.85;;;;;;;8.61;67.05;102032.47;3157958;22;20020;-79
2024/01/31 03:04:18;;;;;;;11.68;9.35;;;;;;;8.62;66.84;102028.13;3157749;22;20509;-78
2024/01/31 03:05:32;;;;;;;12.45;10.30;;;;;;;8.62;67.12;102031.63;3159156;22;20015;-79
2024/01/31 03:06:46;;;;;;;15.98;11.18;;;;;;;8.61;67.15;102035.06;3164410;22;20034;-79
2024/01/31 03:08:00;;;;;;;14.30;9.68;;;;;;;8.62;66.90;102030.72;3157586;22;20095;-79
2024/01/31 03:09:13;;;;;;;12.18;10.85;;;;;;;8.62;67.00;102028.13;3158126;22;20024;-78
2024/01/31 03:10:32;;;;;;;10.90;9.73;;;;;;;8.61;66.84;102035.06;3158412;22;20355;-79
2024/01/31 03:11:45;;;;;;;15.48;9.48;;;;;;;8.62;66.98;102031.63;3158786;22;20463;-78
2024/01/31 03:13:00;;;;;;;12.10;10.90;;;;;;;8.63;66.82;102024.72;3159249;22;20073;-78
2024/01/31 03:14:13;;;;;;;14.82;10.20;;;;;;;8.61;66.80;102029.88;3158057;22;20023;-77
2024/01/31 03:15:28;;;;;;;12.52;9.25;;;;;;;8.61;66.72;102029.88;3157510;22;20351;-79
2024/01/31 03:16:41;;;;;;;13.77;9.77;;;;;;;8.62;66.58;102035.94;3157472;22;20024;-79
2024/01/31 03:17:56;;;;;;;11.80;9.20;;;;;;;8.62;66.93;102025.53;3158431;22;20103;-78
2024/01/31 03:19:09;;;;;;;11.32;10.15;;;;;;;8.62;66.90;102034.25;3159363;22;20024;-79
2024/01/31 03:20:24;;;;;;;12.18;9.85;;;;;;;8.63;66.87;102032.50;3156753;22;20026;-78
2024/01/31 03:21:38;;;;;;;12.10;9.20;;;;;;;8.61;66.66;102029.88;3157606;22;20027;-78
2024/01/31 03:22:52;;;;;;;12.93;8.90;;;;;;;8.61;66.76;102029.88;3158177;22;20094;-78
2024/01/31 03:24:06;;;;;;;11.70;10.50;;;;;;;8.60;66.68;102028.13;3157338;22;20106;-78
2024/01/31 03:25:20;;;;;;;11.38;9.00;;;;;;;8.60;66.54;102022.91;3157849;22;20067;-79
2024/01/31 03:26:35;;;;;;;11.18;8.80;;;;;;;8.61;66.63;102029.00;3157892;22;20019;-78
2024/01/31 03:27:49;;;;;;;12.45;9.55;;;;;;;8.61;66.78;102029.00;3157317;22;20031;-77
2024/01/31 03:29:03;;;;;;;12.57;9.80;;;;;;;8.61;66.75;102035.06;3157270;22;20019;-78
2024/01/31 03:30:17;;;;;;;14.98;11.32;;;;;;;8.61;66.90;102032.47;3158016;22;20023;-78
2024/01/31 03:31:31;;;;;;;11.98;9.85;;;;;;;8.62;66.85;102030.72;3158667;22;20031;-78
2024/01/31 03:32:46;;;;;;;12.73;10.52;;;;;;;8.61;66.96;102027.25;3157915;22;20046;-79
2024/01/31 03:34:00;;;;;;;15.98;10.40;;;;;;;8.61;66.75;102031.59;3158022;22;20027;-78
2024/01/31 03:35:14;;;;;;;14.05;10.40;;;;;;;8.61;66.70;102029.88;3157598;22;20409;-78
2024/01/31 03:36:28;;;;;;;10.98;9.35;;;;;;;8.61;66.75;102031.59;3157205;22;20022;-79
2024/01/31 03:37:43;;;;;;;14.48;9.10;;;;;;;8.60;67.00;102035.06;3157564;22;20473;-79
2024/01/31 03:38:58;;;;;;;10.75;9.60;;;;;;;8.60;67.03;102030.72;3157041;22;20027;-79
2024/01/31 03:40:13;;;;;;;16.00;10.05;;;;;;;8.60;66.95;102032.44;3157132;22;20019;-77
2024/01/31 03:41:27;;;;;;;15.35;10.60;;;;;;;8.60;67.01;102030.72;3157734;22;20455;-78
2024/01/31 03:42:42;;;;;;;12.95;10.43;;;;;;;8.61;66.90;102039.41;3158050;22;20095;-78
2024/01/31 03:43:56;;;;;;;14.98;10.10;;;;;;;8.60;67.06;102037.66;3157447;22;20031;-79
2024/01/31 03:45:10;;;;;;;11.85;9.60;;;;;;;8.59;67.27;102039.34;3158365;22;20019;-77
2024/01/31 03:46:24;;;;;;;15.02;10.00;;;;;;;8.60;67.11;102040.25;3158207;22;20023;-79
2024/01/31 03:47:39;;;;;;;11.93;10.15;;;;;;;8.60;67.27;102040.25;3158371;22;20545;-78
2024/01/31 03:48:52;;;;;;;12.95;9.75;;;;;;;8.60;67.42;102048.06;3157225;22;20027;-79
2024/01/31 03:50:08;;;;;;;12.15;8.95;;;;;;;8.61;67.30;102044.59;3159185;22;20340;-79
2024/01/31 03:51:23;;;;;;;16.13;9.52;;;;;;;8.59;67.20;102052.38;3159216;22;20081;-79
2024/01/31 03:52:37;;;;;;;14.13;10.38;;;;;;;8.60;67.15;102050.66;3157197;22;20470;-77
2024/01/31 03:53:50;;;;;;;11.07;9.23;;;;;;;8.59;67.18;102046.28;3157746;22;20031;-77
2024/01/31 03:55:05;;;;;;;12.25;10.02;;;;;;;8.59;67.06;102052.38;3157500;22;20063;-78
2024/01/31 03:56:19;;;;;;;13.80;10.27;;;;;;;8.58;67.25;102048.03;3156916;22;20115;-78
2024/01/31 03:57:33;;;;;;;10.95;9.32;;;;;;;8.57;67.01;102045.38;3157627;22;20042;-78
2024/01/31 03:58:48;;;;;;;12.82;9.32;;;;;;;8.56;67.17;102052.31;3156715;22;20024;-78
2024/01/31 04:00:05;;;;;;;12.00;9.73;;;;;;;8.55;67.11;102055.75;3157674;22;20019;-78
2024/01/31 04:01:19;;;;;;;12.73;10.98;;;;;;;8.54;67.03;102059.19;3158066;22;20050;-78
2024/01/31 04:02:33;;;;;;;15.20;12.18;;;;;;;8.55;67.27;102060.09;3157601;22;20390;-77
2024/01/31 04:03:47;;;;;;;13.68;10.90;;;;;;;8.54;67.31;102059.19;3157059;22;20031;-78
2024/01/31 04:05:01;;;;;;;13.35;10.50;;;;;;;8.53;67.52;102054.84;3158409;22;20019;-78
2024/01/31 04:06:15;;;;;;;13.07;11.38;;;;;;;8.52;67.63;102055.69;3158192;22;20399;-78
2024/01/31 04:07:29;;;;;;;12.88;11.25;;;;;;;8.50;67.63;102052.19;3157843;22;20026;-79
2024/01/31 04:08:43;;;;;;;13.30;10.98;;;;;;;8.49;67.65;102061.72;3157698;22;20024;-79
2024/01/31 04:09:57;;;;;;;13.27;9.82;;;;;;;8.48;67.60;102069.47;3158257;22;20110;-78
2024/01/31 04:11:11;;;;;;;17.88;11.77;;;;;;;8.47;67.80;102065.13;3158298;22;20024;-79
2024/01/31 04:12:25;;;;;;;13.75;10.65;;;;;;;8.45;67.69;102067.69;3157661;22;20379;-78
2024/01/31 04:13:38;;;;;;;14.15;9.35;;;;;;;8.43;67.85;102069.34;3158225;22;20026;-78
2024/01/31 04:14:54;;;;;;;15.30;11.48;;;;;;;8.43;67.96;102071.97;3158304;22;20020;-79
2024/01/31 04:16:08;;;;;;;14.98;11.02;;;;;;;8.43;67.93;102073.69;3157527;22;20035;-78
2024/01/31 04:17:22;;;;;;;14.00;12.50;;;;;;;8.41;68.14;102076.25;3158042;22;20019;-78
2024/01/31 04:18:36;;;;;;;15.68;12.77;;;;;;;8.40;68.18;102077.09;3158085;22;20026;-78
2024/01/31 04:19:50;;;;;;;12.10;10.80;;;;;;;8.40;68.26;102079.69;3157769;22;20023;-78
2024/01/31 04:21:04;;;;;;;14.35;10.38;;;;;;;8.40;68.47;102084.03;3158583;22;20023;-78
2024/01/31 04:22:18;;;;;;;11.55;10.25;;;;;;;8.39;68.39;102079.63;3158681;22;20020;-78
2024/01/31 04:23:32;;;;;;;16.63;11.27;;;;;;;8.40;68.52;102084.03;3158371;22;20455;-79
2024/01/31 04:24:46;;;;;;;14.57;10.93;;;;;;;8.38;68.75;102078.75;3157565;22;20190;-79
2024/01/31 04:26:00;;;;;;;20.58;11.40;;;;;;;8.36;68.60;102083.03;3159818;22;20396;-77
2024/01/31 04:27:15;;;;;;;16.83;11.85;;;;;;;8.36;68.93;102089.97;3160933;22;20019;-79
2024/01/31 04:28:28;;;;;;;12.27;10.48;;;;;;;8.35;68.78;102088.22;3157922;22;20320;-77
2024/01/31 04:29:43;;;;;;;16.40;12.13;;;;;;;8.34;68.78;102091.63;3158976;22;20026;-78
2024/01/31 04:30:57;;;;;;;15.80;12.18;;;;;;;8.32;68.62;102080.34;3159137;22;20031;-79
2024/01/31 04:32:12;;;;;;;11.68;10.55;;;;;;;8.32;68.86;102082.94;3158584;22;20355;-79
2024/01/31 04:33:25;;;;;;;20.02;12.02;;;;;;;8.32;68.88;102088.16;3159289;22;20030;-79
2024/01/31 04:34:40;;;;;;;20.60;12.35;;;;;;;8.32;68.72;102091.63;3158705;22;20091;-78
2024/01/31 04:35:53;;;;;;;16.98;13.73;;;;;;;8.32;68.96;102089.03;3157989;22;20023;-79
2024/01/31 04:37:08;;;;;;;15.23;12.32;;;;;;;8.32;69.04;102094.22;3159380;22;20047;-77
2024/01/31 04:38:21;;;;;;;23.15;13.55;;;;;;;8.32;69.07;102089.03;3158972;22;20031;-79
2024/01/31 04:39:36;;;;;;;12.45;9.77;;;;;;;8.32;68.87;102093.34;3158980;22;20027;-79
2024/01/31 04:40:50;;;;;;;17.80;12.15;;;;;;;8.32;68.84;102090.75;3158464;22;20020;-78
2024/01/31 04:42:05;;;;;;;13.70;12.15;;;;;;;8.31;68.97;102097.66;3159586;22;20304;-78
2024/01/31 04:43:18;;;;;;;13.10;11.60;;;;;;;8.32;69.14;102095.94;3159579;22;20045;-79
2024/01/31 04:44:32;;;;;;;13.30;11.73;;;;;;;8.32;69.03;102095.94;3160349;22;20020;-79
2024/01/31 04:45:46;;;;;;;16.15;13.68;;;;;;;8.30;69.31;102088.97;3159645;22;20047;-78
2024/01/31 04:47:02;;;;;;;13.27;11.50;;;;;;;8.32;69.20;102094.22;3159728;22;20020;-79
2024/01/31 04:48:16;;;;;;;15.23;11.32;;;;;;;8.30;69.21;102080.28;3159140;22;20577;-78
2024/01/31 04:49:30;;;;;;;16.88;11.80;;;;;;;8.28;69.02;102093.25;3159927;22;20055;-78
2024/01/31 04:50:44;;;;;;;13.70;12.15;;;;;;;8.27;69.22;102094.09;3159168;22;20050;-78
2024/01/31 04:51:58;;;;;;;13.20;11.45;;;;;;;8.27;69.21;102093.22;3158062;22;20042;-77
2024/01/31 04:53:12;;;;;;;13.88;12.38;;;;;;;8.26;69.08;102102.75;3159292;22;20030;-78
2024/01/31 04:54:26;;;;;;;15.80;10.98;;;;;;;8.25;69.04;102100.97;3159060;22;20023;-78
2024/01/31 04:55:40;;;;;;;15.98;10.45;;;;;;;8.24;69.07;102103.56;3159195;22;20020;-78
2024/01/31 04:56:54;;;;;;;13.40;10.43;;;;;;;8.24;69.05;102098.38;3158825;22;20062;-78
2024/01/31 04:58:08;;;;;;;17.90;11.65;;;;;;;8.23;69.38;102105.25;3158877;22;20137;-78
2024/01/31 04:59:22;;;;;;;16.63;11.70;;;;;;;8.24;69.26;102109.66;3159075;22;20118;-78
2024/01/31 05:00:36;;;;;;;12.65;11.38;;;;;;;8.25;69.17;102110.50;3158551;22;20042;-79
2024/01/31 05:01:50;;;;;;;15.90;11.75;;;;;;;8.25;69.19;102115.72;3159907;22;20020;-78
2024/01/31 05:03:05;;;;;;;14.15;12.30;;;;;;;8.24;69.41;102116.56;3159159;22;20459;-78
2024/01/31 05:04:20;;;;;;;14.18;11.95;;;;;;;8.23;69.51;102107.00;3158069;22;20016;-79
2024/01/31 05:05:33;;;;;;;14.68;11.77;;;;;;;8.22;69.57;102108.72;3158832;22;20026;-78
2024/01/31 05:06:47;;;;;;;14.07;12.57;;;;;;;8.24;69.74;102103.56;3159161;22;20042;-79
2024/01/31 05:08:01;;;;;;;16.02;12.30;;;;;;;8.24;69.76;102106.16;3158293;22;20371;-78
2024/01/31 05:09:15;;;;;;;12.50;11.20;;;;;;;8.24;69.75;102099.25;3158349;22;20019;-78
2024/01/31 05:10:32;;;;;;;14.50;11.75;;;;;;;8.24;69.67;102106.16;3158503;22;20030;-78
2024/01/31 05:11:48;;;;;;;14.23;10.10;;;;;;;8.24;69.81;102107.03;3158591;22;20351;-78
2024/01/31 05:13:01;;;;;;;14.93;11.57;;;;;;;8.23;69.71;102110.47;3159025;22;20416;-78
2024/01/31 05:14:16;;;;;;;13.05;10.98;;;;;;;8.24;69.86;102113.97;3159108;22;20030;-78
2024/01/31 05:15:31;;;;;;;15.77;11.75;;;;;;;8.24;69.69;102113.97;3158719;22;20020;-79
2024/01/31 05:16:45;;;;;;;15.38;11.77;;;;;;;8.24;69.84;102113.97;3158213;22;20027;-79
2024/01/31 05:17:59;;;;;;;29.55;14.02;;;;;;;8.24;69.79;102111.38;3158959;22;20443;-78
2024/01/31 05:19:15;;;;;;;12.20;10.60;;;;;;;8.24;69.80;102107.03;3158440;22;20026;-78
2024/01/31 05:20:29;;;;;;;14.85;12.43;;;;;;;8.23;69.79;102113.06;3157967;22;20027;-78
2024/01/31 05:21:46;;;;;;;15.05;12.45;;;;;;;8.24;69.60;102114.84;3158916;22;20099;-78
2024/01/31 05:23:00;;;;;;;22.48;10.80;;;;;;;8.26;69.71;102109.66;3158726;22;20353;-78
2024/01/31 05:24:15;;;;;;;15.50;10.90;;;;;;;8.25;69.78;102116.59;3157908;22;20023;-78
2024/01/31 05:25:28;;;;;;;15.10;11.95;;;;;;;8.25;69.97;102123.53;3158647;22;20027;-79
2024/01/31 05:26:43;;;;;;;29.95;12.88;;;;;;;8.25;69.71;102120.91;3158363;22;20054;-78
2024/01/31 05:27:57;;;;;;;16.67;12.25;;;;;;;8.25;69.77;102120.91;3157837;22;20020;-79
2024/01/31 05:29:11;;;;;;;14.25;12.25;;;;;;;8.24;69.76;102117.44;3158855;22;20023;-79
2024/01/31 05:30:25;;;;;;;13.80;10.90;;;;;;;8.23;69.63;102123.47;3160369;22;20435;-79
2024/01/31 05:31:39;;;;;;;15.90;11.63;;;;;;;8.21;69.79;102125.19;3159537;22;20071;-79
2024/01/31 05:32:53;;;;;;;14.77;11.52;;;;;;;8.20;69.84;102128.59;3159353;22;20362;-79
2024/01/31 05:34:07;;;;;;;17.88;13.18;;;;;;;8.16;69.71;102124.19;3162326;22;20047;-79
2024/01/31 05:35:22;;;;;;;13.23;10.93;;;;;;;8.12;69.81;102130.13;3159614;22;20024;-80
2024/01/31 05:36:36;;;;;;;18.35;13.60;;;;;;;8.09;70.15;102130.06;3158942;22;20015;-79
2024/01/31 05:37:50;;;;;;;13.82;10.63;;;;;;;8.06;70.21;102135.19;3159495;22;20023;-79
2024/01/31 05:39:04;;;;;;;13.27;11.88;;;;;;;8.05;70.48;102125.63;3159339;22;20109;-79
2024/01/31 05:40:18;;;;;;;15.02;11.85;;;;;;;8.04;70.57;102123.88;3158987;22;20073;-80
2024/01/31 05:41:32;;;;;;;20.08;13.88;;;;;;;8.02;70.69;102131.63;3159624;22;20524;-80
2024/01/31 05:42:46;;;;;;;17.92;12.15;;;;;;;8.01;70.84;102118.59;3159583;22;20323;-80